sensor_id;sensor_type;location;lat;lon;timestamp;temperature;humidity
45066;DHT22;30830;53.704;10.004;2022-08-21T00:00:43;13.70;99.90
45066;DHT22;30830;53.704;10.004;2022-08-21T00:03:09;13.70;99.90
45066;DHT22;30830;53.704;10.004;2022-08-21T00:05:41;13.60;99.90
45066;DHT22;30830;53.704;10.004;2022-08-21T00:08:07;13.70;99.90
45066;DHT22;30830;53.704;10.004;2022-08-21T00:10:33;13.70;99.90
45066;DHT22;30830;53.704;10.004;2022-08-21T00:13:00;13.60;99.90
45066;DHT22;30830;53.704;10.004;2022-08-21T00:15:28;13.60;99.90
45066;DHT22;30830;53.704;10.004;2022-08-21T00:17:55;13.60;99.90
45066;DHT22;30830;53.704;10.004;2022-08-21T00:20:21;13.60;99.90
45066;DHT22;30830;53.704;10.004;2022-08-21T00:22:47;13.60;99.90
45066;DHT22;30830;53.704;10.004;2022-08-21T00:25:14;13.50;99.90
45066;DHT22;30830;53.704;10.004;2022-08-21T00:27:41;13.50;99.90
45066;DHT22;30830;53.704;10.004;2022-08-21T00:30:12;13.40;99.90
45066;DHT22;30830;53.704;10.004;2022-08-21T00:32:39;13.40;99.90
45066;DHT22;30830;53.704;10.004;2022-08-21T00:35:07;13.40;99.90
45066;DHT22;30830;53.704;10.004;2022-08-21T00:37:33;13.40;99.90
45066;DHT22;30830;53.704;10.004;2022-08-21T00:39:58;13.40;99.90
45066;DHT22;30830;53.704;10.004;2022-08-21T00:42:24;13.40;99.90
45066;DHT22;30830;53.704;10.004;2022-08-21T00:44:50;13.40;99.90
45066;DHT22;30830;53.704;10.004;2022-08-21T00:47:17;13.30;99.90
45066;DHT22;30830;53.704;10.004;2022-08-21T00:49:43;13.30;99.90
45066;DHT22;30830;53.704;10.004;2022-08-21T00:52:22;13.30;99.90
45066;DHT22;30830;53.704;10.004;2022-08-21T00:54:50;13.30;99.90
45066;DHT22;30830;53.704;10.004;2022-08-21T00:57:24;13.30;99.90
45066;DHT22;30830;53.704;10.004;2022-08-21T00:59:54;13.30;99.90
45066;DHT22;30830;53.704;10.004;2022-08-21T01:02:20;13.20;99.90
45066;DHT22;30830;53.704;10.004;2022-08-21T01:04:47;13.20;99.90
45066;DHT22;30830;53.704;10.004;2022-08-21T01:07:13;13.20;99.90
45066;DHT22;30830;53.704;10.004;2022-08-21T01:09:39;13.20;99.90
45066;DHT22;30830;53.704;10.004;2022-08-21T01:12:05;13.20;99.90
45066;DHT22;30830;53.704;10.004;2022-08-21T01:14:31;13.20;99.90
45066;DHT22;30830;53.704;10.004;2022-08-21T01:16:58;13.20;99.90
45066;DHT22;30830;53.704;10.004;2022-08-21T01:19:25;13.20;99.90
45066;DHT22;30830;53.704;10.004;2022-08-21T01:21:51;13.10;99.90
45066;DHT22;30830;53.704;10.004;2022-08-21T01:24:19;13.20;99.90
45066;DHT22;30830;53.704;10.004;2022-08-21T01:26:44;13.10;99.90
45066;DHT22;30830;53.704;10.004;2022-08-21T01:29:34;13.10;99.90
45066;DHT22;30830;53.704;10.004;2022-08-21T01:32:20;13.10;99.90
45066;DHT22;30830;53.704;10.004;2022-08-21T01:34:48;13.00;99.90
45066;DHT22;30830;53.704;10.004;2022-08-21T01:37:14;13.00;99.90
45066;DHT22;30830;53.704;10.004;2022-08-21T01:39:41;13.00;99.90
45066;DHT22;30830;53.704;10.004;2022-08-21T01:42:07;13.00;99.90
45066;DHT22;30830;53.704;10.004;2022-08-21T01:44:33;13.00;99.90
45066;DHT22;30830;53.704;10.004;2022-08-21T01:47:01;13.00;99.90
45066;DHT22;30830;53.704;10.004;2022-08-21T01:49:27;13.00;99.90
45066;DHT22;30830;53.704;10.004;2022-08-21T01:51:53;12.90;99.90
45066;DHT22;30830;53.704;10.004;2022-08-21T01:54:19;12.90;99.90
45066;DHT22;30830;53.704;10.004;2022-08-21T01:56:47;12.90;99.90
45066;DHT22;30830;53.704;10.004;2022-08-21T01:59:13;12.90;99.90
45066;DHT22;30830;53.704;10.004;2022-08-21T02:01:40;12.80;99.90
45066;DHT22;30830;53.704;10.004;2022-08-21T02:04:07;12.80;99.90
45066;DHT22;30830;53.704;10.004;2022-08-21T02:06:33;12.80;99.90
45066;DHT22;30830;53.704;10.004;2022-08-21T02:08:58;12.80;99.90
45066;DHT22;30830;53.704;10.004;2022-08-21T02:11:24;12.80;99.90
45066;DHT22;30830;53.704;10.004;2022-08-21T02:13:50;12.80;99.90
45066;DHT22;30830;53.704;10.004;2022-08-21T02:16:16;12.70;99.90
45066;DHT22;30830;53.704;10.004;2022-08-21T02:18:41;12.70;99.90
45066;DHT22;30830;53.704;10.004;2022-08-21T02:21:07;12.70;99.90
45066;DHT22;30830;53.704;10.004;2022-08-21T02:23:33;12.70;99.90
45066;DHT22;30830;53.704;10.004;2022-08-21T02:26:00;12.70;99.90
45066;DHT22;30830;53.704;10.004;2022-08-21T02:28:26;12.60;99.90
45066;DHT22;30830;53.704;10.004;2022-08-21T02:30:52;12.60;99.90
45066;DHT22;30830;53.704;10.004;2022-08-21T02:33:18;12.60;99.90
45066;DHT22;30830;53.704;10.004;2022-08-21T02:35:46;12.60;99.90
45066;DHT22;30830;53.704;10.004;2022-08-21T02:38:16;12.50;99.90
45066;DHT22;30830;53.704;10.004;2022-08-21T02:40:45;12.50;99.90
45066;DHT22;30830;53.704;10.004;2022-08-21T02:43:11;12.50;99.90
45066;DHT22;30830;53.704;10.004;2022-08-21T02:45:38;12.50;99.90
45066;DHT22;30830;53.704;10.004;2022-08-21T02:48:08;12.50;99.90
45066;DHT22;30830;53.704;10.004;2022-08-21T02:50:41;12.60;99.90
45066;DHT22;30830;53.704;10.004;2022-08-21T02:53:08;12.50;99.90
45066;DHT22;30830;53.704;10.004;2022-08-21T02:55:35;12.50;99.90
45066;DHT22;30830;53.704;10.004;2022-08-21T02:58:02;12.50;99.90
45066;DHT22;30830;53.704;10.004;2022-08-21T03:00:29;12.50;99.90
45066;DHT22;30830;53.704;10.004;2022-08-21T03:02:56;12.50;99.90
45066;DHT22;30830;53.704;10.004;2022-08-21T03:05:23;12.50;99.90
45066;DHT22;30830;53.704;10.004;2022-08-21T03:07:49;12.40;99.90
45066;DHT22;30830;53.704;10.004;2022-08-21T03:10:15;12.40;99.90
45066;DHT22;30830;53.704;10.004;2022-08-21T03:12:41;12.40;99.90
45066;DHT22;30830;53.704;10.004;2022-08-21T03:15:09;12.40;99.90
45066;DHT22;30830;53.704;10.004;2022-08-21T03:17:35;12.40;99.90
45066;DHT22;30830;53.704;10.004;2022-08-21T03:20:01;12.40;99.90
45066;DHT22;30830;53.704;10.004;2022-08-21T03:22:28;12.40;99.90
45066;DHT22;30830;53.704;10.004;2022-08-21T03:24:53;12.40;99.90
45066;DHT22;30830;53.704;10.004;2022-08-21T03:27:19;12.40;99.90
45066;DHT22;30830;53.704;10.004;2022-08-21T03:29:45;12.30;99.90
45066;DHT22;30830;53.704;10.004;2022-08-21T03:32:11;12.30;99.90
45066;DHT22;30830;53.704;10.004;2022-08-21T03:34:37;12.40;99.90
45066;DHT22;30830;53.704;10.004;2022-08-21T03:37:05;12.30;99.90
45066;DHT22;30830;53.704;10.004;2022-08-21T03:39:31;12.30;99.90
45066;DHT22;30830;53.704;10.004;2022-08-21T03:41:56;12.30;99.90
45066;DHT22;30830;53.704;10.004;2022-08-21T03:44:22;12.30;99.90
45066;DHT22;30830;53.704;10.004;2022-08-21T03:46:48;12.30;99.90
45066;DHT22;30830;53.704;10.004;2022-08-21T03:49:14;12.30;99.90
45066;DHT22;30830;53.704;10.004;2022-08-21T03:51:40;12.20;99.90
45066;DHT22;30830;53.704;10.004;2022-08-21T03:54:05;12.20;99.90
45066;DHT22;30830;53.704;10.004;2022-08-21T03:56:31;12.30;99.90
45066;DHT22;30830;53.704;10.004;2022-08-21T03:58:57;12.30;99.90
45066;DHT22;30830;53.704;10.004;2022-08-21T04:01:23;12.30;99.90
45066;DHT22;30830;53.704;10.004;2022-08-21T04:03:48;12.20;99.90
45066;DHT22;30830;53.704;10.004;2022-08-21T04:06:14;12.20;99.90
45066;DHT22;30830;53.704;10.004;2022-08-21T04:08:39;12.20;99.90
45066;DHT22;30830;53.704;10.004;2022-08-21T04:11:08;12.20;99.90
45066;DHT22;30830;53.704;10.004;2022-08-21T04:13:35;12.30;99.90
45066;DHT22;30830;53.704;10.004;2022-08-21T04:16:01;12.30;99.90
45066;DHT22;30830;53.704;10.004;2022-08-21T04:18:27;12.30;99.90
45066;DHT22;30830;53.704;10.004;2022-08-21T04:20:54;12.30;99.90
45066;DHT22;30830;53.704;10.004;2022-08-21T04:23:21;12.20;99.90
45066;DHT22;30830;53.704;10.004;2022-08-21T04:25:47;12.20;99.90
45066;DHT22;30830;53.704;10.004;2022-08-21T04:28:13;12.20;99.90
45066;DHT22;30830;53.704;10.004;2022-08-21T04:30:38;12.10;99.90
45066;DHT22;30830;53.704;10.004;2022-08-21T04:33:04;12.10;99.90
45066;DHT22;30830;53.704;10.004;2022-08-21T04:35:30;12.20;99.90
45066;DHT22;30830;53.704;10.004;2022-08-21T04:37:56;12.20;99.90
45066;DHT22;30830;53.704;10.004;2022-08-21T04:40:25;12.20;99.90
45066;DHT22;30830;53.704;10.004;2022-08-21T04:43:12;12.20;99.90
45066;DHT22;30830;53.704;10.004;2022-08-21T04:45:41;12.30;99.90
45066;DHT22;30830;53.704;10.004;2022-08-21T04:48:08;12.30;99.90
45066;DHT22;30830;53.704;10.004;2022-08-21T04:53:24;12.40;99.90
45066;DHT22;30830;53.704;10.004;2022-08-21T04:55:51;12.40;99.90
45066;DHT22;30830;53.704;10.004;2022-08-21T04:58:19;12.40;99.90
45066;DHT22;30830;53.704;10.004;2022-08-21T05:00:46;12.50;99.90
45066;DHT22;30830;53.704;10.004;2022-08-21T05:03:12;12.50;99.90
45066;DHT22;30830;53.704;10.004;2022-08-21T05:05:40;12.50;99.90
45066;DHT22;30830;53.704;10.004;2022-08-21T05:08:07;12.60;99.90
45066;DHT22;30830;53.704;10.004;2022-08-21T05:10:33;12.60;99.90
45066;DHT22;30830;53.704;10.004;2022-08-21T05:12:59;12.60;99.90
45066;DHT22;30830;53.704;10.004;2022-08-21T05:15:26;12.70;99.90
45066;DHT22;30830;53.704;10.004;2022-08-21T05:17:51;12.70;99.90
45066;DHT22;30830;53.704;10.004;2022-08-21T05:20:17;12.70;99.90
45066;DHT22;30830;53.704;10.004;2022-08-21T05:22:44;12.80;99.90
45066;DHT22;30830;53.704;10.004;2022-08-21T05:25:10;12.80;99.90
45066;DHT22;30830;53.704;10.004;2022-08-21T05:27:37;12.90;99.90
45066;DHT22;30830;53.704;10.004;2022-08-21T05:30:03;13.00;99.90
45066;DHT22;30830;53.704;10.004;2022-08-21T05:32:29;13.00;99.90
45066;DHT22;30830;53.704;10.004;2022-08-21T05:34:54;13.10;99.90
45066;DHT22;30830;53.704;10.004;2022-08-21T05:37:20;13.20;99.90
45066;DHT22;30830;53.704;10.004;2022-08-21T05:39:46;13.30;99.90
45066;DHT22;30830;53.704;10.004;2022-08-21T05:42:12;13.30;99.90
45066;DHT22;30830;53.704;10.004;2022-08-21T05:44:37;13.40;99.90
45066;DHT22;30830;53.704;10.004;2022-08-21T05:47:07;13.50;99.90
45066;DHT22;30830;53.704;10.004;2022-08-21T05:49:33;13.60;99.90
45066;DHT22;30830;53.704;10.004;2022-08-21T05:52:00;13.60;99.90
45066;DHT22;30830;53.704;10.004;2022-08-21T05:54:26;13.70;99.90
45066;DHT22;30830;53.704;10.004;2022-08-21T05:56:52;13.70;99.90
45066;DHT22;30830;53.704;10.004;2022-08-21T05:59:17;13.80;99.90
45066;DHT22;30830;53.704;10.004;2022-08-21T06:01:43;13.90;99.90
45066;DHT22;30830;53.704;10.004;2022-08-21T06:04:10;14.00;99.90
45066;DHT22;30830;53.704;10.004;2022-08-21T06:06:36;14.10;99.90
45066;DHT22;30830;53.704;10.004;2022-08-21T06:09:03;14.20;99.90
45066;DHT22;30830;53.704;10.004;2022-08-21T06:11:29;14.20;99.90
45066;DHT22;30830;53.704;10.004;2022-08-21T06:13:55;14.30;99.90
45066;DHT22;30830;53.704;10.004;2022-08-21T06:16:21;14.40;99.90
45066;DHT22;30830;53.704;10.004;2022-08-21T06:18:48;14.40;99.90
45066;DHT22;30830;53.704;10.004;2022-08-21T06:21:14;14.50;99.90
45066;DHT22;30830;53.704;10.004;2022-08-21T06:23:40;14.50;99.90
45066;DHT22;30830;53.704;10.004;2022-08-21T06:26:07;14.60;99.90
45066;DHT22;30830;53.704;10.004;2022-08-21T06:28:34;14.60;99.90
45066;DHT22;30830;53.704;10.004;2022-08-21T06:31:01;14.70;99.90
45066;DHT22;30830;53.704;10.004;2022-08-21T06:33:26;14.70;99.90
45066;DHT22;30830;53.704;10.004;2022-08-21T06:35:52;14.80;99.90
45066;DHT22;30830;53.704;10.004;2022-08-21T06:38:18;14.90;99.90
45066;DHT22;30830;53.704;10.004;2022-08-21T06:40:44;15.00;99.90
45066;DHT22;30830;53.704;10.004;2022-08-21T06:43:13;15.00;99.90
45066;DHT22;30830;53.704;10.004;2022-08-21T06:45:39;15.20;99.90
45066;DHT22;30830;53.704;10.004;2022-08-21T06:48:05;15.30;99.90
45066;DHT22;30830;53.704;10.004;2022-08-21T06:50:32;15.40;99.90
45066;DHT22;30830;53.704;10.004;2022-08-21T06:53:25;15.50;99.90
45066;DHT22;30830;53.704;10.004;2022-08-21T06:55:51;15.70;99.90
45066;DHT22;30830;53.704;10.004;2022-08-21T06:58:17;15.90;99.90
45066;DHT22;30830;53.704;10.004;2022-08-21T07:00:45;16.00;99.90
45066;DHT22;30830;53.704;10.004;2022-08-21T07:03:24;16.20;99.90
45066;DHT22;30830;53.704;10.004;2022-08-21T07:05:50;16.40;99.90
45066;DHT22;30830;53.704;10.004;2022-08-21T07:08:16;16.60;99.90
45066;DHT22;30830;53.704;10.004;2022-08-21T07:10:42;16.80;99.90
45066;DHT22;30830;53.704;10.004;2022-08-21T07:13:08;17.00;99.90
45066;DHT22;30830;53.704;10.004;2022-08-21T07:15:33;17.20;99.90
45066;DHT22;30830;53.704;10.004;2022-08-21T07:17:59;17.30;99.90
45066;DHT22;30830;53.704;10.004;2022-08-21T07:20:27;17.60;99.90
45066;DHT22;30830;53.704;10.004;2022-08-21T07:22:53;17.80;99.90
45066;DHT22;30830;53.704;10.004;2022-08-21T07:25:19;18.00;99.90
45066;DHT22;30830;53.704;10.004;2022-08-21T07:27:45;18.20;99.90
45066;DHT22;30830;53.704;10.004;2022-08-21T07:30:11;18.40;99.90
45066;DHT22;30830;53.704;10.004;2022-08-21T07:32:36;18.70;99.90
45066;DHT22;30830;53.704;10.004;2022-08-21T07:35:03;18.90;99.90
45066;DHT22;30830;53.704;10.004;2022-08-21T07:37:29;19.10;99.90
45066;DHT22;30830;53.704;10.004;2022-08-21T07:39:54;19.30;99.90
45066;DHT22;30830;53.704;10.004;2022-08-21T07:42:20;19.50;99.90
45066;DHT22;30830;53.704;10.004;2022-08-21T07:44:45;19.70;99.90
45066;DHT22;30830;53.704;10.004;2022-08-21T07:47:11;19.80;99.90
45066;DHT22;30830;53.704;10.004;2022-08-21T07:49:36;20.00;99.90
45066;DHT22;30830;53.704;10.004;2022-08-21T07:52:03;20.20;99.90
45066;DHT22;30830;53.704;10.004;2022-08-21T07:54:28;20.30;99.90
45066;DHT22;30830;53.704;10.004;2022-08-21T07:56:54;20.50;99.90
45066;DHT22;30830;53.704;10.004;2022-08-21T07:59:19;20.70;99.90
45066;DHT22;30830;53.704;10.004;2022-08-21T08:01:45;20.90;99.90
45066;DHT22;30830;53.704;10.004;2022-08-21T08:04:10;21.10;99.90
45066;DHT22;30830;53.704;10.004;2022-08-21T08:06:36;21.30;99.90
45066;DHT22;30830;53.704;10.004;2022-08-21T08:09:02;21.50;99.90
45066;DHT22;30830;53.704;10.004;2022-08-21T08:11:29;21.70;99.90
45066;DHT22;30830;53.704;10.004;2022-08-21T08:13:55;21.90;99.80
45066;DHT22;30830;53.704;10.004;2022-08-21T08:16:22;22.10;99.40
45066;DHT22;30830;53.704;10.004;2022-08-21T08:18:48;22.20;98.70
45066;DHT22;30830;53.704;10.004;2022-08-21T08:21:14;22.30;98.40
45066;DHT22;30830;53.704;10.004;2022-08-21T08:23:40;22.50;98.70
45066;DHT22;30830;53.704;10.004;2022-08-21T08:26:05;22.70;98.30
45066;DHT22;30830;53.704;10.004;2022-08-21T08:28:33;22.80;97.30
45066;DHT22;30830;53.704;10.004;2022-08-21T08:30:59;22.90;97.70
45066;DHT22;30830;53.704;10.004;2022-08-21T08:33:26;23.00;97.10
45066;DHT22;30830;53.704;10.004;2022-08-21T08:35:52;23.10;97.80
45066;DHT22;30830;53.704;10.004;2022-08-21T08:38:19;23.20;97.30
45066;DHT22;30830;53.704;10.004;2022-08-21T08:41:18;23.30;96.80
45066;DHT22;30830;53.704;10.004;2022-08-21T08:43:51;23.40;96.60
45066;DHT22;30830;53.704;10.004;2022-08-21T08:46:22;23.40;96.20
45066;DHT22;30830;53.704;10.004;2022-08-21T08:48:54;23.50;96.90
45066;DHT22;30830;53.704;10.004;2022-08-21T08:51:46;23.60;96.40
45066;DHT22;30830;53.704;10.004;2022-08-21T08:54:28;23.60;96.90
45066;DHT22;30830;53.704;10.004;2022-08-21T08:57:00;23.80;97.00
45066;DHT22;30830;53.704;10.004;2022-08-21T08:59:35;23.90;96.30
45066;DHT22;30830;53.704;10.004;2022-08-21T09:02:04;24.00;96.40
45066;DHT22;30830;53.704;10.004;2022-08-21T09:04:29;24.10;95.30
45066;DHT22;30830;53.704;10.004;2022-08-21T09:12:25;24.20;95.00
45066;DHT22;30830;53.704;10.004;2022-08-21T09:15:29;24.20;95.30
45066;DHT22;30830;53.704;10.004;2022-08-21T09:18:19;24.20;94.90
45066;DHT22;30830;53.704;10.004;2022-08-21T09:23:52;24.10;94.90
45066;DHT22;30830;53.704;10.004;2022-08-21T09:26:27;24.10;94.80
45066;DHT22;30830;53.704;10.004;2022-08-21T09:28:56;24.20;94.70
45066;DHT22;30830;53.704;10.004;2022-08-21T09:31:31;24.20;95.10
45066;DHT22;30830;53.704;10.004;2022-08-21T09:34:07;24.30;95.00
45066;DHT22;30830;53.704;10.004;2022-08-21T09:36:48;24.30;94.90
45066;DHT22;30830;53.704;10.004;2022-08-21T09:39:25;24.30;95.60
45066;DHT22;30830;53.704;10.004;2022-08-21T09:41:58;24.30;95.60
45066;DHT22;30830;53.704;10.004;2022-08-21T09:44:27;24.20;95.00
45066;DHT22;30830;53.704;10.004;2022-08-21T09:46:53;24.10;94.20
45066;DHT22;30830;53.704;10.004;2022-08-21T09:49:27;24.10;95.10
45066;DHT22;30830;53.704;10.004;2022-08-21T09:51:54;24.10;95.00
45066;DHT22;30830;53.704;10.004;2022-08-21T09:54:20;24.10;95.20
45066;DHT22;30830;53.704;10.004;2022-08-21T09:56:53;24.10;94.70
45066;DHT22;30830;53.704;10.004;2022-08-21T09:59:39;24.20;95.80
45066;DHT22;30830;53.704;10.004;2022-08-21T10:02:34;24.20;95.30
45066;DHT22;30830;53.704;10.004;2022-08-21T10:05:35;24.10;95.00
45066;DHT22;30830;53.704;10.004;2022-08-21T10:07:53;24.10;95.10
45066;DHT22;30830;53.704;10.004;2022-08-21T10:10:22;24.10;95.50
45066;DHT22;30830;53.704;10.004;2022-08-21T10:16:00;24.10;95.30
45066;DHT22;30830;53.704;10.004;2022-08-21T10:19:02;24.20;95.30
45066;DHT22;30830;53.704;10.004;2022-08-21T10:24:06;24.00;94.50
45066;DHT22;30830;53.704;10.004;2022-08-21T10:26:57;23.80;94.90
45066;DHT22;30830;53.704;10.004;2022-08-21T10:29:51;23.60;94.60
45066;DHT22;30830;53.704;10.004;2022-08-21T10:35:17;23.10;95.30
45066;DHT22;30830;53.704;10.004;2022-08-21T10:38:09;23.00;95.90
45066;DHT22;30830;53.704;10.004;2022-08-21T10:43:37;23.20;95.70
45066;DHT22;30830;53.704;10.004;2022-08-21T10:46:14;23.30;95.80
45066;DHT22;30830;53.704;10.004;2022-08-21T10:48:54;23.40;96.00
45066;DHT22;30830;53.704;10.004;2022-08-21T10:51:46;23.40;95.30
45066;DHT22;30830;53.704;10.004;2022-08-21T11:00:02;23.60;95.30
45066;DHT22;30830;53.704;10.004;2022-08-21T11:02:49;23.70;95.10
45066;DHT22;30830;53.704;10.004;2022-08-21T11:05:38;23.90;95.30
45066;DHT22;30830;53.704;10.004;2022-08-21T11:08:29;23.90;93.30
45066;DHT22;30830;53.704;10.004;2022-08-21T11:16:41;24.20;93.20
45066;DHT22;30830;53.704;10.004;2022-08-21T11:19:26;24.00;92.50
45066;DHT22;30830;53.704;10.004;2022-08-21T11:27:40;23.80;92.60
45066;DHT22;30830;53.704;10.004;2022-08-21T11:30:08;23.80;92.40
45066;DHT22;30830;53.704;10.004;2022-08-21T11:32:48;24.00;92.60
45066;DHT22;30830;53.704;10.004;2022-08-21T11:35:39;24.00;92.80
45066;DHT22;30830;53.704;10.004;2022-08-21T11:38:42;24.10;92.00
45066;DHT22;30830;53.704;10.004;2022-08-21T11:43:46;24.30;91.50
45066;DHT22;30830;53.704;10.004;2022-08-21T11:46:56;24.50;91.40
45066;DHT22;30830;53.704;10.004;2022-08-21T11:51:53;24.70;90.90
45066;DHT22;30830;53.704;10.004;2022-08-21T11:54:31;24.80;91.00
45066;DHT22;30830;53.704;10.004;2022-08-21T11:57:21;24.90;91.50
45066;DHT22;30830;53.704;10.004;2022-08-21T12:00:10;25.00;92.60
45066;DHT22;30830;53.704;10.004;2022-08-21T12:02:42;25.10;91.40
45066;DHT22;30830;53.704;10.004;2022-08-21T12:05:22;24.80;91.10
45066;DHT22;30830;53.704;10.004;2022-08-21T12:08:01;24.70;91.10
45066;DHT22;30830;53.704;10.004;2022-08-21T12:10:33;24.40;91.00
45066;DHT22;30830;53.704;10.004;2022-08-21T12:13:20;24.20;91.10
45066;DHT22;30830;53.704;10.004;2022-08-21T12:15:46;24.00;91.60
45066;DHT22;30830;53.704;10.004;2022-08-21T12:18:39;23.90;91.50
45066;DHT22;30830;53.704;10.004;2022-08-21T12:21:26;23.90;91.50
45066;DHT22;30830;53.704;10.004;2022-08-21T12:26:32;24.10;92.40
45066;DHT22;30830;53.704;10.004;2022-08-21T12:29:12;24.30;90.30
45066;DHT22;30830;53.704;10.004;2022-08-21T12:31:54;24.50;90.70
45066;DHT22;30830;53.704;10.004;2022-08-21T12:34:23;24.60;89.90
45066;DHT22;30830;53.704;10.004;2022-08-21T12:36:58;24.70;89.70
45066;DHT22;30830;53.704;10.004;2022-08-21T12:39:27;24.60;88.10
45066;DHT22;30830;53.704;10.004;2022-08-21T12:42:20;24.60;89.70
45066;DHT22;30830;53.704;10.004;2022-08-21T12:44:53;24.60;90.10
45066;DHT22;30830;53.704;10.004;2022-08-21T12:47:35;24.50;90.20
45066;DHT22;30830;53.704;10.004;2022-08-21T12:50:09;24.40;90.20
45066;DHT22;30830;53.704;10.004;2022-08-21T12:52:40;24.40;90.70
45066;DHT22;30830;53.704;10.004;2022-08-21T12:55:12;24.30;90.20
45066;DHT22;30830;53.704;10.004;2022-08-21T12:57:40;24.30;89.80
45066;DHT22;30830;53.704;10.004;2022-08-21T13:00:10;24.40;90.40
45066;DHT22;30830;53.704;10.004;2022-08-21T13:02:51;24.50;90.00
45066;DHT22;30830;53.704;10.004;2022-08-21T13:05:43;24.50;89.70
45066;DHT22;30830;53.704;10.004;2022-08-21T13:08:11;24.70;90.50
45066;DHT22;30830;53.704;10.004;2022-08-21T13:10:39;24.90;89.50
45066;DHT22;30830;53.704;10.004;2022-08-21T13:13:09;25.10;88.50
45066;DHT22;30830;53.704;10.004;2022-08-21T13:15:40;25.10;86.00
45066;DHT22;30830;53.704;10.004;2022-08-21T13:18:06;25.00;87.30
45066;DHT22;30830;53.704;10.004;2022-08-21T13:20:36;24.90;88.10
45066;DHT22;30830;53.704;10.004;2022-08-21T13:23:07;25.00;88.60
45066;DHT22;30830;53.704;10.004;2022-08-21T13:25:41;25.20;88.00
45066;DHT22;30830;53.704;10.004;2022-08-21T13:28:07;25.30;88.20
45066;DHT22;30830;53.704;10.004;2022-08-21T13:30:34;25.50;87.70
45066;DHT22;30830;53.704;10.004;2022-08-21T13:33:05;25.50;83.80
45066;DHT22;30830;53.704;10.004;2022-08-21T13:35:44;25.50;83.10
45066;DHT22;30830;53.704;10.004;2022-08-21T13:38:11;25.50;83.40
45066;DHT22;30830;53.704;10.004;2022-08-21T13:40:51;25.50;83.20
45066;DHT22;30830;53.704;10.004;2022-08-21T13:43:20;25.50;82.90
45066;DHT22;30830;53.704;10.004;2022-08-21T13:45:50;25.30;83.10
45066;DHT22;30830;53.704;10.004;2022-08-21T13:48:17;25.10;84.60
45066;DHT22;30830;53.704;10.004;2022-08-21T13:50:43;25.10;83.50
45066;DHT22;30830;53.704;10.004;2022-08-21T13:56:08;25.40;84.90
45066;DHT22;30830;53.704;10.004;2022-08-21T13:58:43;25.50;84.10
45066;DHT22;30830;53.704;10.004;2022-08-21T14:01:23;25.70;83.80
45066;DHT22;30830;53.704;10.004;2022-08-21T14:03:53;25.80;83.90
45066;DHT22;30830;53.704;10.004;2022-08-21T14:06:22;25.80;83.20
45066;DHT22;30830;53.704;10.004;2022-08-21T14:08:58;25.80;81.90
45066;DHT22;30830;53.704;10.004;2022-08-21T14:11:24;25.80;82.00
45066;DHT22;30830;53.704;10.004;2022-08-21T14:14:00;25.60;82.60
45066;DHT22;30830;53.704;10.004;2022-08-21T14:16:40;25.50;82.20
45066;DHT22;30830;53.704;10.004;2022-08-21T14:19:21;25.50;82.90
45066;DHT22;30830;53.704;10.004;2022-08-21T14:21:48;25.60;83.80
45066;DHT22;30830;53.704;10.004;2022-08-21T14:24:24;25.70;83.50
45066;DHT22;30830;53.704;10.004;2022-08-21T14:26:54;25.80;83.50
45066;DHT22;30830;53.704;10.004;2022-08-21T14:29:22;25.90;83.70
45066;DHT22;30830;53.704;10.004;2022-08-21T14:31:51;25.90;81.80
45066;DHT22;30830;53.704;10.004;2022-08-21T14:34:19;26.00;81.00
45066;DHT22;30830;53.704;10.004;2022-08-21T14:36:47;25.90;81.70
45066;DHT22;30830;53.704;10.004;2022-08-21T14:39:12;25.90;82.50
45066;DHT22;30830;53.704;10.004;2022-08-21T14:41:38;25.90;82.90
45066;DHT22;30830;53.704;10.004;2022-08-21T14:44:04;25.90;82.60
45066;DHT22;30830;53.704;10.004;2022-08-21T14:46:31;25.90;83.20
45066;DHT22;30830;53.704;10.004;2022-08-21T14:48:59;25.80;83.20
45066;DHT22;30830;53.704;10.004;2022-08-21T14:51:25;25.80;80.90
45066;DHT22;30830;53.704;10.004;2022-08-21T14:53:50;25.50;80.10
45066;DHT22;30830;53.704;10.004;2022-08-21T14:56:16;25.40;80.50
45066;DHT22;30830;53.704;10.004;2022-08-21T14:58:45;25.30;81.40
45066;DHT22;30830;53.704;10.004;2022-08-21T15:01:13;25.20;82.30
45066;DHT22;30830;53.704;10.004;2022-08-21T15:03:39;25.20;82.50
45066;DHT22;30830;53.704;10.004;2022-08-21T15:06:06;25.20;84.00
45066;DHT22;30830;53.704;10.004;2022-08-21T15:08:33;25.30;82.50
45066;DHT22;30830;53.704;10.004;2022-08-21T15:11:00;25.30;83.30
45066;DHT22;30830;53.704;10.004;2022-08-21T15:13:27;25.30;82.80
45066;DHT22;30830;53.704;10.004;2022-08-21T15:15:52;25.30;82.70
45066;DHT22;30830;53.704;10.004;2022-08-21T15:18:20;25.30;82.60
45066;DHT22;30830;53.704;10.004;2022-08-21T15:20:46;25.20;83.20
45066;DHT22;30830;53.704;10.004;2022-08-21T15:23:12;25.00;82.50
45066;DHT22;30830;53.704;10.004;2022-08-21T15:25:41;25.00;83.50
45066;DHT22;30830;53.704;10.004;2022-08-21T15:28:09;24.90;83.30
45066;DHT22;30830;53.704;10.004;2022-08-21T15:30:36;24.90;83.70
45066;DHT22;30830;53.704;10.004;2022-08-21T15:33:02;24.90;84.50
45066;DHT22;30830;53.704;10.004;2022-08-21T15:35:28;24.90;83.60
45066;DHT22;30830;53.704;10.004;2022-08-21T15:37:53;24.90;83.00
45066;DHT22;30830;53.704;10.004;2022-08-21T15:40:19;24.90;83.60
45066;DHT22;30830;53.704;10.004;2022-08-21T15:42:44;24.90;81.80
45066;DHT22;30830;53.704;10.004;2022-08-21T15:45:12;24.90;81.80
45066;DHT22;30830;53.704;10.004;2022-08-21T15:47:39;24.80;82.20
45066;DHT22;30830;53.704;10.004;2022-08-21T15:50:08;24.90;82.60
45066;DHT22;30830;53.704;10.004;2022-08-21T15:52:35;24.90;81.70
45066;DHT22;30830;53.704;10.004;2022-08-21T15:55:00;24.90;82.40
45066;DHT22;30830;53.704;10.004;2022-08-21T15:57:26;24.90;83.40
45066;DHT22;30830;53.704;10.004;2022-08-21T15:59:57;24.90;83.60
45066;DHT22;30830;53.704;10.004;2022-08-21T16:02:31;24.70;83.30
45066;DHT22;30830;53.704;10.004;2022-08-21T16:04:57;24.70;84.30
45066;DHT22;30830;53.704;10.004;2022-08-21T16:07:23;24.60;83.40
45066;DHT22;30830;53.704;10.004;2022-08-21T16:09:49;24.60;84.40
45066;DHT22;30830;53.704;10.004;2022-08-21T16:12:25;24.60;84.70
45066;DHT22;30830;53.704;10.004;2022-08-21T16:14:52;24.60;85.40
45066;DHT22;30830;53.704;10.004;2022-08-21T16:17:19;24.60;85.10
45066;DHT22;30830;53.704;10.004;2022-08-21T16:19:46;24.50;84.30
45066;DHT22;30830;53.704;10.004;2022-08-21T16:22:12;24.50;83.50